sensor_id;sensor_type;location;lat;lon;timestamp;P1;durP1;ratioP1;P2;durP2;ratioP2
53781;SDS011;39692;53.114;7.060;2023-04-01T00:01:40;6.28;;;3.83;;
53781;SDS011;39692;53.114;7.060;2023-04-01T00:04:06;5.55;;;3.28;;
53781;SDS011;39692;53.114;7.060;2023-04-01T00:06:32;7.07;;;3.83;;
53781;SDS011;39692;53.114;7.060;2023-04-01T00:08:58;6.30;;;3.97;;
53781;SDS011;39692;53.114;7.060;2023-04-01T00:11:25;7.53;;;3.75;;
53781;SDS011;39692;53.114;7.060;2023-04-01T00:13:52;6.60;;;3.70;;
53781;SDS011;39692;53.114;7.060;2023-04-01T00:16:18;6.22;;;3.65;;
53781;SDS011;39692;53.114;7.060;2023-04-01T00:18:44;6.78;;;3.78;;
53781;SDS011;39692;53.114;7.060;2023-04-01T00:21:12;7.32;;;3.40;;
53781;SDS011;39692;53.114;7.060;2023-04-01T00:23:38;8.75;;;4.20;;
53781;SDS011;39692;53.114;7.060;2023-04-01T00:26:04;9.40;;;4.38;;
53781;SDS011;39692;53.114;7.060;2023-04-01T00:28:30;6.28;;;3.92;;
53781;SDS011;39692;53.114;7.060;2023-04-01T00:30:56;7.57;;;3.80;;
53781;SDS011;39692;53.114;7.060;2023-04-01T00:33:22;6.93;;;3.58;;
53781;SDS011;39692;53.114;7.060;2023-04-01T00:35:48;7.07;;;4.05;;
53781;SDS011;39692;53.114;7.060;2023-04-01T00:38:14;6.82;;;4.00;;
53781;SDS011;39692;53.114;7.060;2023-04-01T00:40:42;7.80;;;4.13;;
53781;SDS011;39692;53.114;7.060;2023-04-01T00:43:13;7.00;;;4.20;;
53781;SDS011;39692;53.114;7.060;2023-04-01T00:45:40;6.97;;;4.22;;
53781;SDS011;39692;53.114;7.060;2023-04-01T00:48:09;9.00;;;4.53;;
53781;SDS011;39692;53.114;7.060;2023-04-01T00:50:35;7.88;;;4.50;;
53781;SDS011;39692;53.114;7.060;2023-04-01T00:53:02;6.50;;;4.25;;
53781;SDS011;39692;53.114;7.060;2023-04-01T00:55:29;7.40;;;4.45;;
53781;SDS011;39692;53.114;7.060;2023-04-01T00:57:57;6.35;;;3.85;;
53781;SDS011;39692;53.114;7.060;2023-04-01T01:00:24;6.75;;;4.10;;
53781;SDS011;39692;53.114;7.060;2023-04-01T01:02:51;7.90;;;4.13;;
53781;SDS011;39692;53.114;7.060;2023-04-01T01:05:17;8.50;;;4.10;;
53781;SDS011;39692;53.114;7.060;2023-04-01T01:10:18;6.38;;;3.97;;
53781;SDS011;39692;53.114;7.060;2023-04-01T01:20:31;8.75;;;4.13;;
53781;SDS011;39692;53.114;7.060;2023-04-01T01:35:48;8.70;;;4.25;;
53781;SDS011;39692;53.114;7.060;2023-04-01T01:38:16;9.50;;;5.03;;
53781;SDS011;39692;53.114;7.060;2023-04-01T01:40:44;8.15;;;4.70;;
53781;SDS011;39692;53.114;7.060;2023-04-01T01:43:12;8.65;;;4.78;;
53781;SDS011;39692;53.114;7.060;2023-04-01T01:45:41;8.57;;;4.05;;
53781;SDS011;39692;53.114;7.060;2023-04-01T01:48:08;10.18;;;4.55;;
53781;SDS011;39692;53.114;7.060;2023-04-01T01:50:35;6.55;;;4.22;;
53781;SDS011;39692;53.114;7.060;2023-04-01T01:53:05;10.07;;;5.05;;
53781;SDS011;39692;53.114;7.060;2023-04-01T01:55:35;9.90;;;5.32;;
53781;SDS011;39692;53.114;7.060;2023-04-01T01:58:23;8.07;;;4.30;;
53781;SDS011;39692;53.114;7.060;2023-04-01T02:00:50;10.25;;;4.82;;
53781;SDS011;39692;53.114;7.060;2023-04-01T02:03:17;10.52;;;4.82;;
53781;SDS011;39692;53.114;7.060;2023-04-01T02:05:44;8.27;;;4.47;;
53781;SDS011;39692;53.114;7.060;2023-04-01T02:08:15;8.02;;;4.47;;
53781;SDS011;39692;53.114;7.060;2023-04-01T02:10:44;9.20;;;4.78;;
53781;SDS011;39692;53.114;7.060;2023-04-01T02:13:13;9.43;;;4.97;;
53781;SDS011;39692;53.114;7.060;2023-04-01T02:15:42;9.38;;;5.30;;
53781;SDS011;39692;53.114;7.060;2023-04-01T02:18:10;10.55;;;4.88;;
53781;SDS011;39692;53.114;7.060;2023-04-01T02:20:37;11.00;;;4.93;;
53781;SDS011;39692;53.114;7.060;2023-04-01T02:23:04;9.10;;;4.55;;
53781;SDS011;39692;53.114;7.060;2023-04-01T02:25:33;8.55;;;4.80;;
53781;SDS011;39692;53.114;7.060;2023-04-01T02:28:01;11.55;;;5.15;;
53781;SDS011;39692;53.114;7.060;2023-04-01T02:30:28;8.95;;;4.70;;
53781;SDS011;39692;53.114;7.060;2023-04-01T02:32:55;8.85;;;4.70;;
53781;SDS011;39692;53.114;7.060;2023-04-01T02:35:22;9.75;;;5.13;;
53781;SDS011;39692;53.114;7.060;2023-04-01T02:37:49;8.50;;;5.13;;
53781;SDS011;39692;53.114;7.060;2023-04-01T02:40:16;9.50;;;4.75;;
53781;SDS011;39692;53.114;7.060;2023-04-01T02:42:42;9.00;;;5.07;;
53781;SDS011;39692;53.114;7.060;2023-04-01T02:45:09;10.13;;;4.97;;
53781;SDS011;39692;53.114;7.060;2023-04-01T02:47:35;8.07;;;4.57;;
53781;SDS011;39692;53.114;7.060;2023-04-01T02:50:01;9.30;;;4.68;;
53781;SDS011;39692;53.114;7.060;2023-04-01T02:52:28;10.20;;;4.70;;
53781;SDS011;39692;53.114;7.060;2023-04-01T02:54:55;7.47;;;4.95;;
53781;SDS011;39692;53.114;7.060;2023-04-01T02:57:22;8.30;;;4.22;;
53781;SDS011;39692;53.114;7.060;2023-04-01T02:59:48;8.88;;;3.85;;
53781;SDS011;39692;53.114;7.060;2023-04-01T03:02:14;7.97;;;4.38;;
53781;SDS011;39692;53.114;7.060;2023-04-01T03:04:40;9.57;;;4.78;;
53781;SDS011;39692;53.114;7.060;2023-04-01T03:07:07;8.40;;;4.97;;
53781;SDS011;39692;53.114;7.060;2023-04-01T03:09:35;9.23;;;5.15;;
53781;SDS011;39692;53.114;7.060;2023-04-01T03:12:01;9.85;;;5.40;;
53781;SDS011;39692;53.114;7.060;2023-04-01T03:14:27;8.02;;;5.00;;
53781;SDS011;39692;53.114;7.060;2023-04-01T03:16:53;9.80;;;5.55;;
53781;SDS011;39692;53.114;7.060;2023-04-01T03:19:19;10.88;;;6.97;;
53781;SDS011;39692;53.114;7.060;2023-04-01T03:21:46;10.85;;;6.20;;
53781;SDS011;39692;53.114;7.060;2023-04-01T03:24:12;9.45;;;5.18;;
53781;SDS011;39692;53.114;7.060;2023-04-01T03:26:38;10.57;;;6.22;;
53781;SDS011;39692;53.114;7.060;2023-04-01T03:29:04;9.05;;;5.68;;
53781;SDS011;39692;53.114;7.060;2023-04-01T03:31:30;10.55;;;5.90;;
53781;SDS011;39692;53.114;7.060;2023-04-01T03:33:56;10.40;;;6.82;;
53781;SDS011;39692;53.114;7.060;2023-04-01T03:36:22;14.57;;;6.43;;
53781;SDS011;39692;53.114;7.060;2023-04-01T03:38:48;12.50;;;5.82;;
53781;SDS011;39692;53.114;7.060;2023-04-01T03:41:15;11.57;;;6.55;;
53781;SDS011;39692;53.114;7.060;2023-04-01T03:43:41;9.48;;;5.72;;
53781;SDS011;39692;53.114;7.060;2023-04-01T03:46:07;10.80;;;5.82;;
53781;SDS011;39692;53.114;7.060;2023-04-01T03:48:33;10.85;;;6.35;;
53781;SDS011;39692;53.114;7.060;2023-04-01T03:51:00;12.63;;;6.07;;
53781;SDS011;39692;53.114;7.060;2023-04-01T03:53:26;10.50;;;6.10;;
53781;SDS011;39692;53.114;7.060;2023-04-01T03:55:52;12.07;;;5.78;;
53781;SDS011;39692;53.114;7.060;2023-04-01T03:58:18;12.80;;;6.20;;
53781;SDS011;39692;53.114;7.060;2023-04-01T04:00:45;11.50;;;5.88;;
53781;SDS011;39692;53.114;7.060;2023-04-01T04:03:11;10.45;;;5.82;;
53781;SDS011;39692;53.114;7.060;2023-04-01T04:05:37;11.43;;;5.63;;
53781;SDS011;39692;53.114;7.060;2023-04-01T04:08:03;12.77;;;6.50;;
53781;SDS011;39692;53.114;7.060;2023-04-01T04:10:29;11.75;;;6.47;;
53781;SDS011;39692;53.114;7.060;2023-04-01T04:12:56;11.05;;;6.57;;
53781;SDS011;39692;53.114;7.060;2023-04-01T04:15:22;10.88;;;5.40;;
53781;SDS011;39692;53.114;7.060;2023-04-01T04:17:48;10.70;;;6.50;;
53781;SDS011;39692;53.114;7.060;2023-04-01T04:20:14;10.80;;;6.00;;
53781;SDS011;39692;53.114;7.060;2023-04-01T04:22:40;15.95;;;6.65;;
53781;SDS011;39692;53.114;7.060;2023-04-01T04:25:07;16.95;;;7.15;;
53781;SDS011;39692;53.114;7.060;2023-04-01T04:27:33;13.23;;;6.68;;
53781;SDS011;39692;53.114;7.060;2023-04-01T04:30:00;12.70;;;6.75;;
53781;SDS011;39692;53.114;7.060;2023-04-01T04:32:26;10.65;;;6.18;;
53781;SDS011;39692;53.114;7.060;2023-04-01T04:34:52;12.07;;;6.50;;
53781;SDS011;39692;53.114;7.060;2023-04-01T04:37:18;15.27;;;7.30;;
53781;SDS011;39692;53.114;7.060;2023-04-01T04:39:44;11.27;;;6.35;;
53781;SDS011;39692;53.114;7.060;2023-04-01T04:42:10;12.10;;;6.30;;
53781;SDS011;39692;53.114;7.060;2023-04-01T04:44:36;11.77;;;6.47;;
53781;SDS011;39692;53.114;7.060;2023-04-01T04:47:02;12.52;;;7.13;;
53781;SDS011;39692;53.114;7.060;2023-04-01T04:49:28;12.90;;;7.05;;
53781;SDS011;39692;53.114;7.060;2023-04-01T04:51:54;11.77;;;6.47;;
53781;SDS011;39692;53.114;7.060;2023-04-01T04:54:20;11.70;;;6.20;;
53781;SDS011;39692;53.114;7.060;2023-04-01T04:56:46;12.13;;;7.60;;
53781;SDS011;39692;53.114;7.060;2023-04-01T04:59:12;14.45;;;7.65;;
53781;SDS011;39692;53.114;7.060;2023-04-01T05:01:38;12.40;;;6.97;;
53781;SDS011;39692;53.114;7.060;2023-04-01T05:04:05;11.65;;;6.57;;
53781;SDS011;39692;53.114;7.060;2023-04-01T05:06:31;12.35;;;7.15;;
53781;SDS011;39692;53.114;7.060;2023-04-01T05:08:57;14.77;;;7.03;;
53781;SDS011;39692;53.114;7.060;2023-04-01T05:11:23;13.98;;;7.47;;
53781;SDS011;39692;53.114;7.060;2023-04-01T05:13:50;11.27;;;6.90;;
53781;SDS011;39692;53.114;7.060;2023-04-01T05:16:18;12.23;;;6.15;;
53781;SDS011;39692;53.114;7.060;2023-04-01T05:18:44;10.10;;;5.88;;
53781;SDS011;39692;53.114;7.060;2023-04-01T05:21:11;13.27;;;6.85;;
53781;SDS011;39692;53.114;7.060;2023-04-01T05:23:38;11.52;;;6.93;;
53781;SDS011;39692;53.114;7.060;2023-04-01T05:26:04;15.70;;;7.90;;
53781;SDS011;39692;53.114;7.060;2023-04-01T05:28:31;12.43;;;6.10;;
53781;SDS011;39692;53.114;7.060;2023-04-01T05:31:00;12.00;;;6.65;;
53781;SDS011;39692;53.114;7.060;2023-04-01T05:33:27;14.82;;;7.03;;
53781;SDS011;39692;53.114;7.060;2023-04-01T05:35:53;14.30;;;7.20;;
53781;SDS011;39692;53.114;7.060;2023-04-01T05:38:19;13.30;;;7.53;;
53781;SDS011;39692;53.114;7.060;2023-04-01T05:40:46;13.23;;;7.15;;
53781;SDS011;39692;53.114;7.060;2023-04-01T05:43:12;14.02;;;7.30;;
53781;SDS011;39692;53.114;7.060;2023-04-01T05:45:38;14.77;;;7.93;;
53781;SDS011;39692;53.114;7.060;2023-04-01T05:48:04;12.88;;;7.22;;
53781;SDS011;39692;53.114;7.060;2023-04-01T05:50:30;13.90;;;8.02;;
53781;SDS011;39692;53.114;7.060;2023-04-01T05:52:57;13.57;;;7.32;;
53781;SDS011;39692;53.114;7.060;2023-04-01T05:55:23;14.27;;;7.38;;
53781;SDS011;39692;53.114;7.060;2023-04-01T05:57:49;14.07;;;8.13;;
53781;SDS011;39692;53.114;7.060;2023-04-01T06:00:16;13.15;;;7.10;;
53781;SDS011;39692;53.114;7.060;2023-04-01T06:02:42;17.13;;;7.55;;
53781;SDS011;39692;53.114;7.060;2023-04-01T06:05:16;14.88;;;7.70;;
53781;SDS011;39692;53.114;7.060;2023-04-01T06:07:43;17.20;;;9.15;;
53781;SDS011;39692;53.114;7.060;2023-04-01T06:10:13;15.02;;;7.45;;
53781;SDS011;39692;53.114;7.060;2023-04-01T06:12:45;14.90;;;8.05;;
53781;SDS011;39692;53.114;7.060;2023-04-01T06:15:30;14.60;;;8.18;;
53781;SDS011;39692;53.114;7.060;2023-04-01T06:18:13;11.73;;;6.90;;
53781;SDS011;39692;53.114;7.060;2023-04-01T06:26:33;13.05;;;7.13;;
53781;SDS011;39692;53.114;7.060;2023-04-01T06:29:06;15.05;;;7.53;;
53781;SDS011;39692;53.114;7.060;2023-04-01T06:31:51;17.02;;;8.90;;
53781;SDS011;39692;53.114;7.060;2023-04-01T06:41:52;15.60;;;7.35;;
53781;SDS011;39692;53.114;7.060;2023-04-01T06:50:01;14.93;;;7.78;;
53781;SDS011;39692;53.114;7.060;2023-04-01T06:55:02;12.45;;;7.25;;
53781;SDS011;39692;53.114;7.060;2023-04-01T06:57:35;13.00;;;6.38;;
53781;SDS011;39692;53.114;7.060;2023-04-01T07:00:05;15.32;;;7.20;;
53781;SDS011;39692;53.114;7.060;2023-04-01T07:02:41;13.48;;;7.10;;
53781;SDS011;39692;53.114;7.060;2023-04-01T07:05:08;16.05;;;8.20;;
53781;SDS011;39692;53.114;7.060;2023-04-01T07:07:41;15.32;;;7.95;;
53781;SDS011;39692;53.114;7.060;2023-04-01T07:10:13;13.85;;;6.88;;
53781;SDS011;39692;53.114;7.060;2023-04-01T07:13:00;15.48;;;8.60;;
53781;SDS011;39692;53.114;7.060;2023-04-01T07:15:30;14.73;;;6.50;;
53781;SDS011;39692;53.114;7.060;2023-04-01T07:18:02;12.82;;;7.22;;
53781;SDS011;39692;53.114;7.060;2023-04-01T07:20:32;13.77;;;7.13;;
53781;SDS011;39692;53.114;7.060;2023-04-01T07:23:02;11.32;;;6.13;;
53781;SDS011;39692;53.114;7.060;2023-04-01T07:25:31;12.65;;;6.90;;
53781;SDS011;39692;53.114;7.060;2023-04-01T07:28:01;13.38;;;7.15;;
53781;SDS011;39692;53.114;7.060;2023-04-01T07:30:28;12.98;;;7.18;;
53781;SDS011;39692;53.114;7.060;2023-04-01T07:33:12;13.18;;;6.57;;
53781;SDS011;39692;53.114;7.060;2023-04-01T07:35:44;11.63;;;5.97;;
53781;SDS011;39692;53.114;7.060;2023-04-01T07:41:05;11.93;;;7.15;;
53781;SDS011;39692;53.114;7.060;2023-04-01T07:46:21;10.18;;;5.95;;
53781;SDS011;39692;53.114;7.060;2023-04-01T07:51:30;11.00;;;6.32;;
53781;SDS011;39692;53.114;7.060;2023-04-01T08:01:32;11.38;;;6.72;;
53781;SDS011;39692;53.114;7.060;2023-04-01T08:04:22;13.13;;;7.75;;
53781;SDS011;39692;53.114;7.060;2023-04-01T08:09:41;9.07;;;5.28;;
53781;SDS011;39692;53.114;7.060;2023-04-01T08:17:09;11.00;;;6.05;;
53781;SDS011;39692;53.114;7.060;2023-04-01T08:19:51;10.43;;;6.53;;
53781;SDS011;39692;53.114;7.060;2023-04-01T08:22:29;11.35;;;5.75;;
53781;SDS011;39692;53.114;7.060;2023-04-01T08:24:57;12.73;;;6.78;;
53781;SDS011;39692;53.114;7.060;2023-04-01T08:30:26;11.80;;;6.90;;
53781;SDS011;39692;53.114;7.060;2023-04-01T08:32:55;13.30;;;6.55;;
53781;SDS011;39692;53.114;7.060;2023-04-01T08:35:34;11.05;;;6.20;;
53781;SDS011;39692;53.114;7.060;2023-04-01T08:38:06;12.07;;;7.05;;
53781;SDS011;39692;53.114;7.060;2023-04-01T08:53:17;12.27;;;6.10;;
53781;SDS011;39692;53.114;7.060;2023-04-01T09:01:13;8.00;;;4.93;;
53781;SDS011;39692;53.114;7.060;2023-04-01T09:07:19;9.73;;;4.55;;
53781;SDS011;39692;53.114;7.060;2023-04-01T09:21:52;7.53;;;3.30;;
53781;SDS011;39692;53.114;7.060;2023-04-01T09:24:33;5.80;;;3.28;;
53781;SDS011;39692;53.114;7.060;2023-04-01T09:27:05;6.20;;;3.08;;
53781;SDS011;39692;53.114;7.060;2023-04-01T09:37:17;6.32;;;2.88;;
53781;SDS011;39692;53.114;7.060;2023-04-01T09:48:00;4.80;;;2.17;;
53781;SDS011;39692;53.114;7.060;2023-04-01T09:50:45;5.00;;;2.73;;
53781;SDS011;39692;53.114;7.060;2023-04-01T09:53:17;4.57;;;2.30;;
53781;SDS011;39692;53.114;7.060;2023-04-01T10:11:48;3.42;;;1.67;;
53781;SDS011;39692;53.114;7.060;2023-04-01T10:25:22;3.20;;;1.50;;
53781;SDS011;39692;53.114;7.060;2023-04-01T10:33:27;3.15;;;1.48;;
53781;SDS011;39692;53.114;7.060;2023-04-01T10:41:16;3.40;;;1.42;;
53781;SDS011;39692;53.114;7.060;2023-04-01T10:49:43;4.43;;;1.77;;
53781;SDS011;39692;53.114;7.060;2023-04-01T10:54:17;3.38;;;1.85;;
53781;SDS011;39692;53.114;7.060;2023-04-01T11:22:54;2.22;;;1.48;;
53781;SDS011;39692;53.114;7.060;2023-04-01T11:28:01;2.53;;;1.30;;
53781;SDS011;39692;53.114;7.060;2023-04-01T11:33:07;3.80;;;2.05;;
53781;SDS011;39692;53.114;7.060;2023-04-01T11:49:16;2.85;;;1.63;;
53781;SDS011;39692;53.114;7.060;2023-04-01T11:57:06;2.67;;;1.58;;
53781;SDS011;39692;53.114;7.060;2023-04-01T12:09:51;3.60;;;1.70;;
53781;SDS011;39692;53.114;7.060;2023-04-01T12:17:53;2.90;;;1.70;;
53781;SDS011;39692;53.114;7.060;2023-04-01T12:33:44;4.18;;;1.92;;
53781;SDS011;39692;53.114;7.060;2023-04-01T12:36:18;2.60;;;1.70;;
53781;SDS011;39692;53.114;7.060;2023-04-01T12:52:11;2.25;;;0.90;;
53781;SDS011;39692;53.114;7.060;2023-04-01T13:08:15;2.67;;;1.42;;
53781;SDS011;39692;53.114;7.060;2023-04-01T13:20:36;2.55;;;1.10;;
53781;SDS011;39692;53.114;7.060;2023-04-01T13:30:42;2.95;;;1.13;;
53781;SDS011;39692;53.114;7.060;2023-04-01T13:33:27;2.10;;;1.00;;
53781;SDS011;39692;53.114;7.060;2023-04-01T13:38:37;1.90;;;1.13;;
53781;SDS011;39692;53.114;7.060;2023-04-01T13:43:36;1.95;;;0.95;;
53781;SDS011;39692;53.114;7.060;2023-04-01T13:51:29;2.03;;;0.93;;
53781;SDS011;39692;53.114;7.060;2023-04-01T13:56:51;2.22;;;1.10;;
53781;SDS011;39692;53.114;7.060;2023-04-01T14:10:05;2.38;;;1.38;;
53781;SDS011;39692;53.114;7.060;2023-04-01T14:12:38;2.38;;;1.30;;
53781;SDS011;39692;53.114;7.060;2023-04-01T14:17:50;1.60;;;1.08;;
53781;SDS011;39692;53.114;7.060;2023-04-01T14:20:25;2.17;;;1.30;;
53781;SDS011;39692;53.114;7.060;2023-04-01T14:25:39;1.90;;;1.08;;
53781;SDS011;39692;53.114;7.060;2023-04-01T14:33:23;3.05;;;1.33;;
53781;SDS011;39692;53.114;7.060;2023-04-01T14:36:16;2.42;;;1.42;;
53781;SDS011;39692;53.114;7.060;2023-04-01T14:51:45;3.38;;;1.48;;
53781;SDS011;39692;53.114;7.060;2023-04-01T14:56:44;2.25;;;0.90;;
53781;SDS011;39692;53.114;7.060;2023-04-01T14:59:34;1.65;;;0.82;;
53781;SDS011;39692;53.114;7.060;2023-04-01T15:02:01;1.02;;;0.65;;
53781;SDS011;39692;53.114;7.060;2023-04-01T15:04:50;2.22;;;1.30;;
53781;SDS011;39692;53.114;7.060;2023-04-01T15:09:54;2.25;;;1.35;;
53781;SDS011;39692;53.114;7.060;2023-04-01T15:12:39;1.58;;;1.17;;
53781;SDS011;39692;53.114;7.060;2023-04-01T15:25:15;5.75;;;2.40;;
53781;SDS011;39692;53.114;7.060;2023-04-01T15:37:55;4.88;;;2.70;;
53781;SDS011;39692;53.114;7.060;2023-04-01T15:40:27;4.35;;;2.10;;
53781;SDS011;39692;53.114;7.060;2023-04-01T15:43:05;4.40;;;2.53;;
53781;SDS011;39692;53.114;7.060;2023-04-01T15:50:36;3.47;;;1.98;;
53781;SDS011;39692;53.114;7.060;2023-04-01T15:53:37;4.40;;;2.15;;
53781;SDS011;39692;53.114;7.060;2023-04-01T15:56:06;5.70;;;2.67;;
53781;SDS011;39692;53.114;7.060;2023-04-01T16:04:12;4.05;;;2.67;;
53781;SDS011;39692;53.114;7.060;2023-04-01T16:06:49;3.40;;;2.22;;
53781;SDS011;39692;53.114;7.060;2023-04-01T16:12:16;3.83;;;2.50;;
53781;SDS011;39692;53.114;7.060;2023-04-01T16:14:59;7.32;;;2.30;;
53781;SDS011;39692;53.114;7.060;2023-04-01T16:17:39;4.32;;;2.58;;
53781;SDS011;39692;53.114;7.060;2023-04-01T16:22:56;4.75;;;2.38;;
53781;SDS011;39692;53.114;7.060;2023-04-01T16:25:31;4.53;;;2.38;;
53781;SDS011;39692;53.114;7.060;2023-04-01T16:31:23;6.68;;;2.40;;
53781;SDS011;39692;53.114;7.060;2023-04-01T16:38:50;5.75;;;2.95;;
53781;SDS011;39692;53.114;7.060;2023-04-01T16:41:25;6.28;;;3.38;;
53781;SDS011;39692;53.114;7.060;2023-04-01T16:43:55;3.95;;;2.15;;
53781;SDS011;39692;53.114;7.060;2023-04-01T16:46:26;5.90;;;2.90;;
53781;SDS011;39692;53.114;7.060;2023-04-01T16:51:40;5.95;;;3.35;;
53781;SDS011;39692;53.114;7.060;2023-04-01T16:54:13;4.88;;;2.58;;
53781;SDS011;39692;53.114;7.060;2023-04-01T16:56:45;5.25;;;3.20;;
53781;SDS011;39692;53.114;7.060;2023-04-01T16:59:21;6.43;;;3.28;;
53781;SDS011;39692;53.114;7.060;2023-04-01T17:01:55;6.55;;;3.50;;
53781;SDS011;39692;53.114;7.060;2023-04-01T17:04:26;4.72;;;2.70;;
53781;SDS011;39692;53.114;7.060;2023-04-01T17:09:43;4.90;;;2.50;;
53781;SDS011;39692;53.114;7.060;2023-04-01T17:12:23;5.00;;;2.08;;
53781;SDS011;39692;53.114;7.060;2023-04-01T17:25:27;5.05;;;2.85;;
53781;SDS011;39692;53.114;7.060;2023-04-01T17:35:34;6.72;;;3.33;;
53781;SDS011;39692;53.114;7.060;2023-04-01T17:45:54;5.40;;;2.67;;
53781;SDS011;39692;53.114;7.060;2023-04-01T17:48:24;7.32;;;3.70;;
53781;SDS011;39692;53.114;7.060;2023-04-01T17:50:59;8.23;;;4.00;;
53781;SDS011;39692;53.114;7.060;2023-04-01T18:01:12;5.05;;;3.03;;
53781;SDS011;39692;53.114;7.060;2023-04-01T18:06:34;6.10;;;3.53;;
53781;SDS011;39692;53.114;7.060;2023-04-01T18:11:54;5.32;;;3.20;;
53781;SDS011;39692;53.114;7.060;2023-04-01T18:14:30;6.78;;;3.42;;
53781;SDS011;39692;53.114;7.060;2023-04-01T18:25:01;6.60;;;3.08;;
53781;SDS011;39692;53.114;7.060;2023-04-01T18:27:36;6.78;;;3.35;;
53781;SDS011;39692;53.114;7.060;2023-04-01T18:33:09;3.70;;;2.17;;
53781;SDS011;39692;53.114;7.060;2023-04-01T18:35:56;6.15;;;3.30;;
53781;SDS011;39692;53.114;7.060;2023-04-01T18:38:28;8.43;;;3.42;;
53781;SDS011;39692;53.114;7.060;2023-04-01T18:43:42;6.68;;;3.50;;
53781;SDS011;39692;53.114;7.060;2023-04-01T18:46:21;4.95;;;2.70;;
53781;SDS011;39692;53.114;7.060;2023-04-01T18:51:18;6.40;;;3.10;;
53781;SDS011;39692;53.114;7.060;2023-04-01T18:53:57;3.65;;;2.50;;
53781;SDS011;39692;53.114;7.060;2023-04-01T18:56:32;4.10;;;2.85;;
53781;SDS011;39692;53.114;7.060;2023-04-01T19:09:18;9.18;;;4.72;;
53781;SDS011;39692;53.114;7.060;2023-04-01T19:12:08;9.65;;;4.55;;
53781;SDS011;39692;53.114;7.060;2023-04-01T19:17:00;10.10;;;4.47;;
53781;SDS011;39692;53.114;7.060;2023-04-01T19:19:34;8.52;;;3.85;;
53781;SDS011;39692;53.114;7.060;2023-04-01T19:22:30;6.45;;;3.35;;
53781;SDS011;39692;53.114;7.060;2023-04-01T19:27:35;6.60;;;3.60;;
53781;SDS011;39692;53.114;7.060;2023-04-01T19:42:34;5.57;;;3.63;;
53781;SDS011;39692;53.114;7.060;2023-04-01T19:50:30;7.97;;;3.90;;
53781;SDS011;39692;53.114;7.060;2023-04-01T19:53:11;4.97;;;3.70;;
53781;SDS011;39692;53.114;7.060;2023-04-01T20:00:51;5.82;;;3.95;;
53781;SDS011;39692;53.114;7.060;2023-04-01T20:16:21;10.32;;;3.05;;
53781;SDS011;39692;53.114;7.060;2023-04-01T20:18:50;9.88;;;4.13;;
53781;SDS011;39692;53.114;7.060;2023-04-01T20:21:31;7.22;;;3.45;;
53781;SDS011;39692;53.114;7.060;2023-04-01T20:24:00;5.28;;;3.08;;
53781;SDS011;39692;53.114;7.060;2023-04-01T20:26:32;6.10;;;3.25;;
53781;SDS011;39692;53.114;7.060;2023-04-01T20:31:34;5.22;;;3.10;;
53781;SDS011;39692;53.114;7.060;2023-04-01T20:34:21;5.47;;;2.97;;
53781;SDS011;39692;53.114;7.060;2023-04-01T20:36:57;5.88;;;3.28;;
53781;SDS011;39692;53.114;7.060;2023-04-01T20:47:44;7.55;;;3.53;;
53781;SDS011;39692;53.114;7.060;2023-04-01T20:53:16;6.13;;;3.20;;
53781;SDS011;39692;53.114;7.060;2023-04-01T20:58:24;5.97;;;3.60;;
53781;SDS011;39692;53.114;7.060;2023-04-01T21:01:17;7.05;;;3.33;;
53781;SDS011;39692;53.114;7.060;2023-04-01T21:04:00;5.05;;;2.75;;
53781;SDS011;39692;53.114;7.060;2023-04-01T21:06:51;4.25;;;2.83;;
53781;SDS011;39692;53.114;7.060;2023-04-01T21:12:15;3.47;;;2.25;;
53781;SDS011;39692;53.114;7.060;2023-04-01T21:17:33;7.97;;;3.47;;
53781;SDS011;39692;53.114;7.060;2023-04-01T21:20:13;4.68;;;2.50;;
53781;SDS011;39692;53.114;7.060;2023-04-01T21:25:32;8.18;;;3.05;;
53781;SDS011;39692;53.114;7.060;2023-04-01T21:28:06;7.63;;;2.90;;
53781;SDS011;39692;53.114;7.060;2023-04-01T21:33:30;5.85;;;3.03;;
53781;SDS011;39692;53.114;7.060;2023-04-01T21:36:20;8.77;;;3.35;;
53781;SDS011;39692;53.114;7.060;2023-04-01T21:44:10;5.32;;;3.05;;
53781;SDS011;39692;53.114;7.060;2023-04-01T21:57:08;6.18;;;2.45;;
53781;SDS011;39692;53.114;7.060;2023-04-01T22:07:50;6.65;;;2.22;;
53781;SDS011;39692;53.114;7.060;2023-04-01T22:10:32;4.93;;;2.63;;
53781;SDS011;39692;53.114;7.060;2023-04-01T22:15:53;4.47;;;2.35;;
53781;SDS011;39692;53.114;7.060;2023-04-01T22:18:32;5.45;;;2.03;;
53781;SDS011;39692;53.114;7.060;2023-04-01T22:21:03;4.78;;;2.83;;
53781;SDS011;39692;53.114;7.060;2023-04-01T22:31:19;4.63;;;2.42;;
53781;SDS011;39692;53.114;7.060;2023-04-01T22:39:32;3.88;;;1.70;;
53781;SDS011;39692;53.114;7.060;2023-04-01T22:42:13;3.92;;;2.38;;
53781;SDS011;39692;53.114;7.060;2023-04-01T22:49:51;6.00;;;2.38;;
53781;SDS011;39692;53.114;7.060;2023-04-01T22:52:23;5.32;;;2.80;;
53781;SDS011;39692;53.114;7.060;2023-04-01T22:54:54;5.97;;;2.60;;
53781;SDS011;39692;53.114;7.060;2023-04-01T23:00:08;3.22;;;2.47;;
53781;SDS011;39692;53.114;7.060;2023-04-01T23:02:42;4.90;;;2.33;;
53781;SDS011;39692;53.114;7.060;2023-04-01T23:05:10;4.45;;;2.85;;
53781;SDS011;39692;53.114;7.060;2023-04-01T23:07:40;6.53;;;2.80;;
53781;SDS011;39692;53.114;7.060;2023-04-01T23:12:58;4.90;;;2.25;;
53781;SDS011;39692;53.114;7.060;2023-04-01T23:15:26;5.68;;;2.28;;
53781;SDS011;39692;53.114;7.060;2023-04-01T23:18:01;3.67;;;2.22;;
53781;SDS011;39692;53.114;7.060;2023-04-01T23:20:38;4.13;;;2.65;;
53781;SDS011;39692;53.114;7.060;2023-04-01T23:28:19;7.95;;;2.72;;
53781;SDS011;39692;53.114;7.060;2023-04-01T23:30:50;8.13;;;3.20;;
53781;SDS011;39692;53.114;7.060;2023-04-01T23:35:49;7.32;;;1.98;;
53781;SDS011;39692;53.114;7.060;2023-04-01T23:38:16;4.25;;;2.33;;
53781;SDS011;39692;53.114;7.060;2023-04-01T23:40:42;7.55;;;3.28;;
53781;SDS011;39692;53.114;7.060;2023-04-01T23:43:15;4.85;;;2.17;;
53781;SDS011;39692;53.114;7.060;2023-04-01T23:45:45;4.88;;;3.30;;
53781;SDS011;39692;53.114;7.060;2023-04-01T23:48:12;7.43;;;2.47;;
53781;SDS011;39692;53.114;7.060;2023-04-01T23:50:41;3.45;;;1.70;;
53781;SDS011;39692;53.114;7.060;2023-04-01T23:53:21;5.88;;;1.85;;
53781;SDS011;39692;53.114;7.060;2023-04-01T23:55:49;10.77;;;2.42;;
53781;SDS011;39692;53.114;7.060;2023-04-01T23:58:25;4.50;;;2.03;;
